Flight Track Log - Related Links

Times and Time Zones

All times are in EDT time to prevent confusion due to time zone crossing. See the N333HC flight status page for this flight to view local times or setup timezone preferences in your user account.

Time Position Orientation Groundspeed Altitude Reporting Facility
EDT Latitude Longitude Course Direction KTS MPH feet Rate Location/Type
Sat 11:19:41 AM 32.3328 -94.8219 270° West 180 207 8,100  Level Fort Worth Center
Sat 11:20:41 AM 32.3342 -94.8808 272° West 180 207 9,900 1,650 Climbing Fort Worth Center
Sat 11:21:00 AM 32.3765 -95.0984 266° West  Level Estimated
Sat 11:21:41 AM 32.3333 -94.9425 269° West 175 201 11,400  Level Fort Worth Center
Sat 11:22:00 AM 32.3730 -95.1756 267° West  Level FlightAware Approximate
Sat 11:22:41 AM 32.3322 -95.0039 269° West 193 222 12,800  Level Fort Worth Center
Sat 11:23:00 AM 32.3713 -95.2530 270° West  Level Estimated
Sat 11:23:41 AM 32.3356 -95.0653 274° West 199 229 14,100  Level Fort Worth Center
Sat 11:24:41 AM 32.3325 -95.1317 267° West 199 229 15,500 1,250 Climbing Fort Worth Center
Sat 11:25:41 AM 32.3317 -95.1981 269° West 199 229 16,600 1,150 Climbing Fort Worth Center
Sat 11:26:41 AM 32.3328 -95.2619 271° West 199 229 17,800 1,150 Climbing Fort Worth Center
Sat 11:27:41 AM 32.3297 -95.3333 267° West 199 229 18,900 1,100 Climbing Fort Worth Center
Sat 11:28:41 AM 32.3289 -95.4022 269° West 209 241 20,000 1,100 Climbing Fort Worth Center
Sat 11:29:41 AM 32.3258 -95.4736 267° West 216 249 21,100 950 Climbing Fort Worth Center
Sat 11:30:41 AM 32.3247 -95.5425 269° West 216 249 21,900 800 Climbing Fort Worth Center
Sat 11:31:41 AM 32.3258 -95.6136 271° West 216 249 22,700 750 Climbing Fort Worth Center
Sat 11:32:41 AM 32.3247 -95.6875 269° West 216 249 23,400 700 Climbing Fort Worth Center
Sat 11:33:41 AM 32.3217 -95.7614 267° West 216 249 24,100 650 Climbing Fort Worth Center
Sat 11:34:41 AM 32.3206 -95.8375 269° West 221 254 24,700 600 Climbing Fort Worth Center
Sat 11:35:41 AM 32.3192 -95.9114 269° West 227 261 25,300 550 Climbing Fort Worth Center
Sat 11:36:41 AM 32.3181 -95.9875 269° West 232 267 25,800 500 Climbing Fort Worth Center
Sat 11:37:41 AM 32.3167 -96.0639 269° West 237 273 26,300 450 Climbing Fort Worth Center
Sat 11:38:41 AM 32.3156 -96.1400 269° West 237 273 26,700 350 Climbing Fort Worth Center
Sat 11:39:41 AM 32.3142 -96.2161 269° West 237 273 27,000 300 Climbing Fort Worth Center
Sat 11:40:41 AM 32.3108 -96.2950 267° West 237 273 27,300 250 Climbing Fort Worth Center
Sat 11:41:41 AM 32.3092 -96.3736 269° West 237 273 27,500 300 Climbing Fort Worth Center
Sat 11:42:41 AM 32.3058 -96.4500 267° West 237 273 27,900 250 Climbing Fort Worth Center
Sat 11:43:41 AM 32.3042 -96.5311 269° West 237 273 28,000 50 Climbing Fort Worth Center
Sat 11:44:41 AM 32.3006 -96.6147 267° West 242 278 28,000  Level Fort Worth Center
Sat 11:45:41 AM 32.2989 -96.7006 269° West 253 291 28,000  Level Fort Worth Center
Sat 11:46:41 AM 32.2975 -96.7842 269° West 253 291 28,000  Level Fort Worth Center
Sat 11:47:41 AM 32.2936 -96.8703 267° West 259 298 28,000  Level Fort Worth Center
Sat 11:48:41 AM 32.2919 -96.9539 269° West 259 298 28,000  Level Fort Worth Center
Sat 11:49:41 AM 32.2900 -97.0422 269° West 264 304 28,000  Level Fort Worth Center
Sat 11:50:41 AM 32.2881 -97.1258 268° West 264 304 28,000  Level Fort Worth Center
Sat 11:51:41 AM 32.2842 -97.2119 267° West 264 304 28,000  Level Fort Worth Center
Sat 11:52:41 AM 32.2822 -97.2956 268° West 264 304 28,000  Level Fort Worth Center
Sat 11:53:41 AM 32.2800 -97.3839 268° West 269 310 28,000  Level Fort Worth Center
Sat 11:54:41 AM 32.2781 -97.4700 268° West 269 310 28,000  Level Fort Worth Center
Sat 11:55:42 AM 32.2739 -97.5583 267° West 269 310 28,000  Level Fort Worth Center
Sat 11:56:41 AM 32.2717 -97.6444 268° West 269 310 28,000  Level Fort Worth Center
Sat 11:57:41 AM 32.2672 -97.7303 267° West 269 310 28,000  Level Fort Worth Center
Sat 11:58:41 AM 32.2647 -97.8164 268° West 269 310 28,000  Level Fort Worth Center
Sat 11:59:41 AM 32.2625 -97.9047 268° West 269 310 28,000  Level Fort Worth Center
Sat 12:00:41 PM 32.2578 -97.9883 266° West 269 310 28,000  Level Fort Worth Center
Sat 12:01:41 PM 32.2553 -98.0742 268° West 269 310 28,000  Level Fort Worth Center
Sat 12:02:41 PM 32.2528 -98.1628 268° West 269 310 28,000  Level Fort Worth Center
Sat 12:03:41 PM 32.2481 -98.2511 266° West 269 310 28,000  Level Fort Worth Center
Sat 12:04:41 PM 32.2183 -98.3294 246° West 269 310 28,000  Level Fort Worth Center
Sat 12:05:41 PM 32.1864 -98.4075 244° Southwest 264 304 28,000 -300 Level Fort Worth Center
Sat 12:06:41 PM 32.1525 -98.4808 241° Southwest 265 305 27,400 50 Descending Fort Worth Center
Sat 12:07:41 PM 32.1183 -98.5564 242° Southwest 265 305 28,100 300 Climbing Fort Worth Center
Sat 12:08:41 PM 32.0906 -98.6344 247° West 259 298 28,000 -50 Descending Fort Worth Center
Sat 12:09:41 PM 32.0647 -98.7128 249° West 259 298 28,000  Level Fort Worth Center
Sat 12:10:41 PM 32.0386 -98.7908 248° West 259 298 28,000  Level Fort Worth Center
Sat 12:11:41 PM 32.0128 -98.8736 250° West 259 298 28,000  Level Fort Worth Center
Sat 12:12:41 PM 31.9847 -98.9492 246° West 259 298 28,000  Level Fort Worth Center
Sat 12:13:42 PM 31.9586 -99.0269 248° West 264 304 28,000  Level Fort Worth Center
Sat 12:14:41 PM 31.9325 -99.1072 249° West 264 304 28,000  Level Fort Worth Center
Sat 12:15:41 PM 31.9106 -99.1853 252° West 264 304 28,000  Level Fort Worth Center
Sat 12:16:41 PM 31.8928 -99.2681 256° West 264 304 28,000  Level Fort Worth Center
Sat 12:17:41 PM 31.8789 -99.3558 259° West 257 296 28,000  Level Fort Worth Center
Sat 12:18:41 PM 31.8672 -99.4389 261° West 257 296 28,000  Level Fort Worth Center
Sat 12:19:41 PM 31.8553 -99.5192 260° West 257 296 28,000  Level Fort Worth Center
Sat 12:20:41 PM 31.8414 -99.6022 259° West 257 296 28,000  Level Fort Worth Center
Sat 12:21:41 PM 31.8317 -99.6825 262° West 257 296 28,000  Level Fort Worth Center
Sat 12:22:41 PM 31.8197 -99.7653 260° West 257 296 28,000  Level Fort Worth Center
Sat 12:23:41 PM 31.8056 -99.8433 258° West 257 296 28,000  Level Fort Worth Center
Sat 12:24:41 PM 31.7978 -99.9261 264° West 257 296 28,000  Level Fort Worth Center
Sat 12:25:41 PM 31.7939 -100.0092 267° West 257 296 28,000  Level Fort Worth Center
Sat 12:26:41 PM 31.7881 -100.0919 265° West 257 296 28,000  Level Fort Worth Center
Sat 12:27:41 PM 31.7842 -100.1750 267° West 257 296 28,000  Level Fort Worth Center
Sat 12:28:41 PM 31.7781 -100.2578 265° West 257 296 28,000  Level Fort Worth Center
Sat 12:29:41 PM 31.7825 -100.3386 274° West 252 290 28,000  Level Fort Worth Center
Sat 12:30:41 PM 31.7931 -100.4197 279° West 252 290 28,000 -50 Level Fort Worth Center
Sat 12:31:42 PM 31.8058 -100.5008 281° West 258 297 27,900  Descending Fort Worth Center
Sat 12:32:41 PM 31.8183 -100.5819 280° West 258 297 28,000 50 Climbing Fort Worth Center
Sat 12:33:41 PM 31.8331 -100.6581 283° West 253 291 28,000 -397 Level Fort Worth Center
Sat 12:34:42 PM 31.8436 -100.7392 279° West 253 291 27,200 -1,150 Descending Fort Worth Center
Sat 12:35:41 PM 31.8578 -100.8278 281° West 259 298 25,700 -1,462 Descending Fort Worth Center
Sat 12:36:41 PM 31.8678 -100.9211 277° West 277 319 24,300 -1,339 Descending Fort Worth Center
Sat 12:37:42 PM 31.8839 -101.0172 281° West 287 330 23,000 -1,400 Descending Fort Worth Center
Sat 12:38:41 PM 31.8978 -101.1106 280° West 292 336 21,500 -1,664 Descending Fort Worth Center
Sat 12:39:41 PM 31.9117 -101.2067 280° West 297 342 19,700 -1,800 Descending Fort Worth Center
Sat 12:40:41 PM 31.9275 -101.3053 281° West 297 342 17,900 -1,700 Descending Fort Worth Center
Sat 12:41:41 PM 31.9372 -101.3936 277° West 291 335 16,300 -1,650 Descending Fort Worth Center
Sat 12:42:41 PM 31.9556 -101.4778 284° West 281 323 14,600 -1,785 Descending Fort Worth Center
Sat 12:43:42 PM 31.9844 -101.5525 295° West 265 305 12,700 -1,800 Descending Fort Worth Center
Sat 12:44:41 PM 32.0131 -101.6272 294° West 254 292 11,000 -1,765 Descending Fort Worth Center
Sat 12:45:41 PM 32.0358 -101.6969 291° West 244 281 9,200 -1,983 Descending Fort Worth Center
Sat 12:46:42 PM 32.0586 -101.7642 292° West 232 267 7,000 -2,100 Descending Fort Worth Center
Sat 12:47:41 PM 32.0833 -101.8292 294° West 226 260 5,000 -1,261 Descending Fort Worth Center
Sat 12:48:41 PM 32.0875 -101.8931 274° West 212 244 4,500 -298 Descending Fort Worth Center
Sat 12:49:42 PM 32.1061 -101.9553 289° West 212 244 4,400 11,750 Descending Fort Worth Center
Sat 12:50:41 PM 32.1203 -102.0247 284° West 212 244 28,000 11,899 Climbing Fort Worth Center
Sat 12:51:41 PM 32.1325 -102.0914 282° West 212 244 28,000  Level Fort Worth Center
Sat 12:52:41 PM 32.1464 -102.1608 283° West 212 244 28,000  Level Fort Worth Center
Sat 12:53:41 PM 32.1481 -102.1733 279° West 212 244 28,000  Level Fort Worth Center
Sat 12:56:00 PM 32.0695 -102.1231 152° Southeast  Level FlightAware Approximate
Sat 01:03:00 PM 32.0333 -102.1000 151° Southeast  Level FlightAware Approximate

Login

Don't have an account? Register now (free) for customized features, flight alerts, and more!